Airfield :
LOGIN :

Register | Disclaimer

   EN    FR    IT 

 










Legend :    VFR   Marginal VFR   IFR   Intensive IFR   Very Intensive IFR
Visi :
Ceiling :
>= 8 km
>= 3000ft
5 to 8 km
1000 to 3000 ft
1500m to 5 km
500 to 1000 ft
800 to 1500m
200 to 500 ft
< 800m
< 200 ft
Symbols :   Thunderstorms  Fog  Heavy snow  Heavy precipitations  Wind > 20 kt
SIGMETs :     Misc.  Thunderstorms  Icing  Turbulence  Mountain Waves  Volcanic Ashes






- Airport Elevation : 87 ft
- IATA code : FSC


LFKF - Figari

CURRENT METAR :
  • 190400Z AUTO 07016KT 9999 BKN049 OVC058 23/19 Q1012 NOSIG

EXPIRED METARs :
  • 190330Z AUTO 07013KT 9999 OVC054 23/19 Q1013 NOSIG
  • 190300Z AUTO 07014KT 9999 FEW049 BKN058 OVC074 22/18 Q1013 NOSIG
  • 190230Z AUTO 07014KT 9999 BKN058 BKN070 22/18 Q1013
  • 190200Z AUTO 08013KT 9999 SCT056 BKN072 23/18 Q1013
  • 190130Z AUTO 07015KT 9999 FEW066 23/18 Q1013
  • 190100Z AUTO 07015KT CAVOK 23/18 Q1013
  • 190030Z AUTO 07015KT CAVOK 23/18 Q1014
  • 190000Z AUTO 07015KT CAVOK 23/18 Q1014
  • 182330Z AUTO 07015KT CAVOK 24/18 Q1014

TAF TAF LFKF
Valid from the 19 at 03:00 until the 20 at 03:00 UTC


190200Z 1903/2003 07015KT 9999 SCT050 BKN070
TEMPO 1907/1914 06005KT



MET'MAP, your aeronautical weather chart ! - Copyright ORBIFLY December 2007 - Disclaimer

ORBIFLY MET'MAP TEAM :

Programming & Development : Alexandra Zaïnal
Original concept : Baudouin d'Aumeries
Technical & hardware support : Manuel Goepfert
Assistance : Marc-Olivier Méhu




SOURCES & CREDITS :

   NOAA